sensor_id;sensor_type;location;lat;lon;timestamp;temperature;humidity
360;DHT22;168;48.872;9.226;2023-11-22T00:00:46;6.70;72.30
360;DHT22;168;48.872;9.226;2023-11-22T00:03:14;6.60;72.30
360;DHT22;168;48.872;9.226;2023-11-22T00:05:41;6.50;72.00
360;DHT22;168;48.872;9.226;2023-11-22T00:08:08;6.40;72.20
360;DHT22;168;48.872;9.226;2023-11-22T00:10:36;6.30;73.90
360;DHT22;168;48.872;9.226;2023-11-22T00:13:05;6.20;73.50
360;DHT22;168;48.872;9.226;2023-11-22T00:15:32;6.20;73.00
360;DHT22;168;48.872;9.226;2023-11-22T00:17:59;6.20;73.80
360;DHT22;168;48.872;9.226;2023-11-22T00:20:29;6.20;75.20
360;DHT22;168;48.872;9.226;2023-11-22T00:22:57;6.10;74.40
360;DHT22;168;48.872;9.226;2023-11-22T00:25:24;6.20;74.30
360;DHT22;168;48.872;9.226;2023-11-22T00:27:51;6.20;73.40
360;DHT22;168;48.872;9.226;2023-11-22T00:30:20;6.30;75.10
360;DHT22;168;48.872;9.226;2023-11-22T00:32:49;6.30;75.10
360;DHT22;168;48.872;9.226;2023-11-22T00:35:17;6.20;75.50
360;DHT22;168;48.872;9.226;2023-11-22T00:37:44;6.20;76.30
360;DHT22;168;48.872;9.226;2023-11-22T00:40:12;6.10;74.90
360;DHT22;168;48.872;9.226;2023-11-22T00:42:40;6.10;75.80
360;DHT22;168;48.872;9.226;2023-11-22T00:45:09;6.00;76.10
360;DHT22;168;48.872;9.226;2023-11-22T00:47:38;6.00;77.20
360;DHT22;168;48.872;9.226;2023-11-22T00:50:06;5.80;79.00
360;DHT22;168;48.872;9.226;2023-11-22T00:52:34;5.70;78.20
360;DHT22;168;48.872;9.226;2023-11-22T00:55:01;5.70;78.70
360;DHT22;168;48.872;9.226;2023-11-22T00:57:29;5.60;78.50
360;DHT22;168;48.872;9.226;2023-11-22T00:59:56;5.60;77.40
360;DHT22;168;48.872;9.226;2023-11-22T01:02:24;5.60;79.90
360;DHT22;168;48.872;9.226;2023-11-22T01:04:52;5.60;80.90
360;DHT22;168;48.872;9.226;2023-11-22T01:07:20;5.60;84.00
360;DHT22;168;48.872;9.226;2023-11-22T01:09:47;5.60;82.30
360;DHT22;168;48.872;9.226;2023-11-22T01:12:14;5.60;81.90
360;DHT22;168;48.872;9.226;2023-11-22T01:14:42;5.60;81.30
360;DHT22;168;48.872;9.226;2023-11-22T01:17:09;5.60;79.70
360;DHT22;168;48.872;9.226;2023-11-22T01:19:36;5.60;80.10
360;DHT22;168;48.872;9.226;2023-11-22T01:22:05;5.60;81.20
360;DHT22;168;48.872;9.226;2023-11-22T01:24:32;5.60;83.40
360;DHT22;168;48.872;9.226;2023-11-22T01:27:00;5.60;83.90
360;DHT22;168;48.872;9.226;2023-11-22T01:29:27;5.60;84.10
360;DHT22;168;48.872;9.226;2023-11-22T01:31:54;5.60;84.60
360;DHT22;168;48.872;9.226;2023-11-22T01:34:22;5.50;86.20
360;DHT22;168;48.872;9.226;2023-11-22T01:36:50;5.50;91.10
360;DHT22;168;48.872;9.226;2023-11-22T01:39:18;5.40;90.00
360;DHT22;168;48.872;9.226;2023-11-22T01:41:47;5.40;92.90
360;DHT22;168;48.872;9.226;2023-11-22T01:44:15;5.30;92.80
360;DHT22;168;48.872;9.226;2023-11-22T01:46:44;5.30;94.20
360;DHT22;168;48.872;9.226;2023-11-22T01:49:12;5.30;94.10
360;DHT22;168;48.872;9.226;2023-11-22T01:51:40;5.20;95.10
360;DHT22;168;48.872;9.226;2023-11-22T01:54:08;5.20;94.30
360;DHT22;168;48.872;9.226;2023-11-22T01:56:38;5.20;95.10
360;DHT22;168;48.872;9.226;2023-11-22T01:59:06;5.20;94.80
360;DHT22;168;48.872;9.226;2023-11-22T02:01:34;5.30;94.60
360;DHT22;168;48.872;9.226;2023-11-22T02:04:03;5.30;95.30
360;DHT22;168;48.872;9.226;2023-11-22T02:06:32;5.40;96.10
360;DHT22;168;48.872;9.226;2023-11-22T02:08:59;5.30;96.10
360;DHT22;168;48.872;9.226;2023-11-22T02:11:27;5.40;96.40
360;DHT22;168;48.872;9.226;2023-11-22T02:13:56;5.30;97.40
360;DHT22;168;48.872;9.226;2023-11-22T02:16:23;5.30;97.10
360;DHT22;168;48.872;9.226;2023-11-22T02:18:50;5.20;97.60
360;DHT22;168;48.872;9.226;2023-11-22T02:21:18;5.20;97.90
360;DHT22;168;48.872;9.226;2023-11-22T02:23:48;5.20;99.30
360;DHT22;168;48.872;9.226;2023-11-22T02:26:16;5.10;99.10
360;DHT22;168;48.872;9.226;2023-11-22T02:28:44;5.10;98.50
360;DHT22;168;48.872;9.226;2023-11-22T02:31:12;5.20;99.30
360;DHT22;168;48.872;9.226;2023-11-22T02:33:39;5.10;99.10
360;DHT22;168;48.872;9.226;2023-11-22T02:36:08;5.20;99.00
360;DHT22;168;48.872;9.226;2023-11-22T02:38:38;5.10;99.50
360;DHT22;168;48.872;9.226;2023-11-22T02:41:08;5.00;99.10
360;DHT22;168;48.872;9.226;2023-11-22T02:43:35;5.00;99.10
360;DHT22;168;48.872;9.226;2023-11-22T02:46:02;5.20;98.80
360;DHT22;168;48.872;9.226;2023-11-22T02:48:30;5.30;99.30
360;DHT22;168;48.872;9.226;2023-11-22T02:50:57;5.20;99.40
360;DHT22;168;48.872;9.226;2023-11-22T02:53:24;5.10;99.30
360;DHT22;168;48.872;9.226;2023-11-22T02:55:53;5.10;99.30
360;DHT22;168;48.872;9.226;2023-11-22T02:58:23;5.10;99.30
360;DHT22;168;48.872;9.226;2023-11-22T03:00:50;5.10;99.40
360;DHT22;168;48.872;9.226;2023-11-22T03:03:20;5.10;99.50
360;DHT22;168;48.872;9.226;2023-11-22T03:05:49;5.10;99.30
360;DHT22;168;48.872;9.226;2023-11-22T03:08:17;5.00;99.00
360;DHT22;168;48.872;9.226;2023-11-22T03:10:44;5.00;99.60
360;DHT22;168;48.872;9.226;2023-11-22T03:13:12;5.00;99.50
360;DHT22;168;48.872;9.226;2023-11-22T03:15:41;5.00;99.50
360;DHT22;168;48.872;9.226;2023-11-22T03:18:08;4.90;99.30
360;DHT22;168;48.872;9.226;2023-11-22T03:20:37;4.90;99.50
360;DHT22;168;48.872;9.226;2023-11-22T03:23:04;4.90;99.50
360;DHT22;168;48.872;9.226;2023-11-22T03:25:32;5.00;99.40
360;DHT22;168;48.872;9.226;2023-11-22T03:27:59;5.00;99.40
360;DHT22;168;48.872;9.226;2023-11-22T03:30:27;5.00;99.70
360;DHT22;168;48.872;9.226;2023-11-22T03:32:55;5.00;99.70
360;DHT22;168;48.872;9.226;2023-11-22T03:35:23;5.00;99.30
360;DHT22;168;48.872;9.226;2023-11-22T03:37:50;5.00;99.40
360;DHT22;168;48.872;9.226;2023-11-22T03:40:17;5.00;99.50
360;DHT22;168;48.872;9.226;2023-11-22T03:42:46;5.00;99.30
360;DHT22;168;48.872;9.226;2023-11-22T03:45:13;5.10;99.50
360;DHT22;168;48.872;9.226;2023-11-22T03:47:40;5.10;99.60
360;DHT22;168;48.872;9.226;2023-11-22T03:50:09;5.10;99.50
360;DHT22;168;48.872;9.226;2023-11-22T03:52:37;5.10;99.50
360;DHT22;168;48.872;9.226;2023-11-22T03:55:18;5.10;99.30
360;DHT22;168;48.872;9.226;2023-11-22T03:57:48;5.00;99.40
360;DHT22;168;48.872;9.226;2023-11-22T04:00:17;4.90;99.30
360;DHT22;168;48.872;9.226;2023-11-22T04:02:45;4.90;99.30
360;DHT22;168;48.872;9.226;2023-11-22T04:05:14;5.00;99.50
360;DHT22;168;48.872;9.226;2023-11-22T04:07:41;5.00;99.40
360;DHT22;168;48.872;9.226;2023-11-22T04:10:09;5.10;99.50
360;DHT22;168;48.872;9.226;2023-11-22T04:12:36;5.20;99.50
360;DHT22;168;48.872;9.226;2023-11-22T04:15:05;5.10;99.60
360;DHT22;168;48.872;9.226;2023-11-22T04:17:34;5.10;99.40
360;DHT22;168;48.872;9.226;2023-11-22T04:20:04;5.00;99.30
360;DHT22;168;48.872;9.226;2023-11-22T04:22:40;4.90;99.30
360;DHT22;168;48.872;9.226;2023-11-22T04:25:08;4.90;99.40
360;DHT22;168;48.872;9.226;2023-11-22T04:27:36;4.80;99.20
360;DHT22;168;48.872;9.226;2023-11-22T04:30:05;4.90;99.80
360;DHT22;168;48.872;9.226;2023-11-22T04:32:35;4.90;99.30
360;DHT22;168;48.872;9.226;2023-11-22T04:35:03;5.00;99.40
360;DHT22;168;48.872;9.226;2023-11-22T04:37:31;5.00;99.70
360;DHT22;168;48.872;9.226;2023-11-22T04:40:00;5.10;99.40
360;DHT22;168;48.872;9.226;2023-11-22T04:42:29;5.10;99.30
360;DHT22;168;48.872;9.226;2023-11-22T04:44:56;5.20;99.10
360;DHT22;168;48.872;9.226;2023-11-22T04:47:24;5.20;98.80
360;DHT22;168;48.872;9.226;2023-11-22T04:49:51;5.20;99.00
360;DHT22;168;48.872;9.226;2023-11-22T04:52:19;5.10;99.10
360;DHT22;168;48.872;9.226;2023-11-22T04:54:46;5.10;99.10
360;DHT22;168;48.872;9.226;2023-11-22T04:57:15;5.10;99.30
360;DHT22;168;48.872;9.226;2023-11-22T04:59:42;5.00;99.30
360;DHT22;168;48.872;9.226;2023-11-22T05:02:10;4.90;99.20
360;DHT22;168;48.872;9.226;2023-11-22T05:04:37;4.80;99.40
360;DHT22;168;48.872;9.226;2023-11-22T05:07:05;4.80;99.50
360;DHT22;168;48.872;9.226;2023-11-22T05:09:34;4.80;99.30
360;DHT22;168;48.872;9.226;2023-11-22T05:12:01;4.70;99.40
360;DHT22;168;48.872;9.226;2023-11-22T05:14:30;4.70;99.70
360;DHT22;168;48.872;9.226;2023-11-22T05:16:57;4.70;99.50
360;DHT22;168;48.872;9.226;2023-11-22T05:19:25;4.60;99.50
360;DHT22;168;48.872;9.226;2023-11-22T05:21:52;4.60;99.40
360;DHT22;168;48.872;9.226;2023-11-22T05:24:20;4.50;99.70
360;DHT22;168;48.872;9.226;2023-11-22T05:26:47;4.50;99.30
360;DHT22;168;48.872;9.226;2023-11-22T05:29:15;4.50;99.50
360;DHT22;168;48.872;9.226;2023-11-22T05:31:44;4.50;99.50
360;DHT22;168;48.872;9.226;2023-11-22T05:34:11;4.60;99.50
360;DHT22;168;48.872;9.226;2023-11-22T05:36:39;4.60;99.70
360;DHT22;168;48.872;9.226;2023-11-22T05:39:06;4.60;99.50
360;DHT22;168;48.872;9.226;2023-11-22T05:41:34;4.50;99.60
360;DHT22;168;48.872;9.226;2023-11-22T05:44:02;4.40;99.40
360;DHT22;168;48.872;9.226;2023-11-22T05:46:30;4.50;99.90
360;DHT22;168;48.872;9.226;2023-11-22T05:48:58;4.50;99.40
360;DHT22;168;48.872;9.226;2023-11-22T05:51:27;4.40;99.40
360;DHT22;168;48.872;9.226;2023-11-22T05:53:54;4.40;99.40
360;DHT22;168;48.872;9.226;2023-11-22T05:56:22;4.50;99.40
360;DHT22;168;48.872;9.226;2023-11-22T05:58:49;4.50;99.30
360;DHT22;168;48.872;9.226;2023-11-22T06:01:17;4.60;99.40
360;DHT22;168;48.872;9.226;2023-11-22T06:03:44;4.70;99.40
360;DHT22;168;48.872;9.226;2023-11-22T06:06:13;4.60;99.60
360;DHT22;168;48.872;9.226;2023-11-22T06:08:41;4.60;99.40
360;DHT22;168;48.872;9.226;2023-11-22T06:11:08;4.60;99.50
360;DHT22;168;48.872;9.226;2023-11-22T06:13:35;4.50;99.50
360;DHT22;168;48.872;9.226;2023-11-22T06:16:03;4.40;99.30
360;DHT22;168;48.872;9.226;2023-11-22T06:18:30;4.30;99.60
360;DHT22;168;48.872;9.226;2023-11-22T06:21:00;4.30;99.60
360;DHT22;168;48.872;9.226;2023-11-22T06:23:28;4.30;99.50
360;DHT22;168;48.872;9.226;2023-11-22T06:25:56;4.30;99.70
360;DHT22;168;48.872;9.226;2023-11-22T06:28:23;4.30;99.30
360;DHT22;168;48.872;9.226;2023-11-22T06:30:50;4.30;99.50
360;DHT22;168;48.872;9.226;2023-11-22T06:33:18;4.30;99.20
360;DHT22;168;48.872;9.226;2023-11-22T06:35:45;4.20;99.30
360;DHT22;168;48.872;9.226;2023-11-22T06:38:13;4.20;99.50
360;DHT22;168;48.872;9.226;2023-11-22T06:40:42;4.10;99.30
360;DHT22;168;48.872;9.226;2023-11-22T06:43:09;4.10;99.30
360;DHT22;168;48.872;9.226;2023-11-22T06:45:37;4.10;99.70
360;DHT22;168;48.872;9.226;2023-11-22T06:48:05;4.00;99.20
360;DHT22;168;48.872;9.226;2023-11-22T06:50:32;3.90;99.20
360;DHT22;168;48.872;9.226;2023-11-22T06:53:00;3.90;99.40
360;DHT22;168;48.872;9.226;2023-11-22T06:55:29;4.00;99.50
360;DHT22;168;48.872;9.226;2023-11-22T06:58:00;3.90;99.20
360;DHT22;168;48.872;9.226;2023-11-22T07:00:27;3.90;99.20
360;DHT22;168;48.872;9.226;2023-11-22T07:02:54;3.90;99.20
360;DHT22;168;48.872;9.226;2023-11-22T07:05:22;3.90;99.10
360;DHT22;168;48.872;9.226;2023-11-22T07:07:49;3.80;98.40
360;DHT22;168;48.872;9.226;2023-11-22T07:10:17;3.70;98.70
360;DHT22;168;48.872;9.226;2023-11-22T07:12:46;3.70;98.40
360;DHT22;168;48.872;9.226;2023-11-22T07:15:15;3.70;98.50
360;DHT22;168;48.872;9.226;2023-11-22T07:17:42;3.80;98.50
360;DHT22;168;48.872;9.226;2023-11-22T07:20:11;3.90;98.00
360;DHT22;168;48.872;9.226;2023-11-22T07:22:42;4.00;98.00
360;DHT22;168;48.872;9.226;2023-11-22T07:25:09;3.90;98.00
360;DHT22;168;48.872;9.226;2023-11-22T07:27:44;3.80;98.20
360;DHT22;168;48.872;9.226;2023-11-22T07:30:14;3.70;98.10
360;DHT22;168;48.872;9.226;2023-11-22T07:32:42;3.70;98.10
360;DHT22;168;48.872;9.226;2023-11-22T07:35:10;3.50;98.30
360;DHT22;168;48.872;9.226;2023-11-22T07:37:38;3.50;98.60
360;DHT22;168;48.872;9.226;2023-11-22T07:40:09;3.60;98.80
360;DHT22;168;48.872;9.226;2023-11-22T07:42:39;3.50;98.70
360;DHT22;168;48.872;9.226;2023-11-22T07:45:07;3.50;98.60
360;DHT22;168;48.872;9.226;2023-11-22T07:47:38;3.60;98.60
360;DHT22;168;48.872;9.226;2023-11-22T07:50:08;3.50;98.60
360;DHT22;168;48.872;9.226;2023-11-22T07:52:37;3.60;98.80
360;DHT22;168;48.872;9.226;2023-11-22T07:55:06;3.50;98.20
360;DHT22;168;48.872;9.226;2023-11-22T07:57:36;3.40;98.30
360;DHT22;168;48.872;9.226;2023-11-22T08:00:06;3.40;98.80
360;DHT22;168;48.872;9.226;2023-11-22T08:02:33;3.50;98.80
360;DHT22;168;48.872;9.226;2023-11-22T08:05:02;3.30;98.10
360;DHT22;168;48.872;9.226;2023-11-22T08:07:34;3.20;98.20
360;DHT22;168;48.872;9.226;2023-11-22T08:10:05;3.30;97.80
360;DHT22;168;48.872;9.226;2023-11-22T08:12:35;3.20;97.70
360;DHT22;168;48.872;9.226;2023-11-22T08:15:05;3.10;97.70
360;DHT22;168;48.872;9.226;2023-11-22T08:17:35;3.20;98.00
360;DHT22;168;48.872;9.226;2023-11-22T08:20:05;3.30;97.80
360;DHT22;168;48.872;9.226;2023-11-22T08:22:32;3.40;97.40
360;DHT22;168;48.872;9.226;2023-11-22T08:25:02;3.50;97.40
360;DHT22;168;48.872;9.226;2023-11-22T08:27:30;3.40;97.20
360;DHT22;168;48.872;9.226;2023-11-22T08:29:58;3.50;97.60
360;DHT22;168;48.872;9.226;2023-11-22T08:32:27;3.40;96.80
360;DHT22;168;48.872;9.226;2023-11-22T08:34:57;3.20;97.40
360;DHT22;168;48.872;9.226;2023-11-22T08:37:25;3.20;98.00
360;DHT22;168;48.872;9.226;2023-11-22T08:39:53;3.30;97.60
360;DHT22;168;48.872;9.226;2023-11-22T08:42:20;3.30;97.80
360;DHT22;168;48.872;9.226;2023-11-22T08:44:48;3.40;97.80
360;DHT22;168;48.872;9.226;2023-11-22T08:47:16;3.60;97.20
360;DHT22;168;48.872;9.226;2023-11-22T08:49:44;3.70;96.50
360;DHT22;168;48.872;9.226;2023-11-22T08:52:11;3.70;96.20
360;DHT22;168;48.872;9.226;2023-11-22T08:54:40;3.60;96.60
360;DHT22;168;48.872;9.226;2023-11-22T08:57:08;3.70;96.50
360;DHT22;168;48.872;9.226;2023-11-22T08:59:37;3.80;96.70
360;DHT22;168;48.872;9.226;2023-11-22T09:02:04;3.80;96.80
360;DHT22;168;48.872;9.226;2023-11-22T09:04:33;3.90;96.50
360;DHT22;168;48.872;9.226;2023-11-22T09:07:01;4.10;95.30
360;DHT22;168;48.872;9.226;2023-11-22T09:09:28;4.10;94.70
360;DHT22;168;48.872;9.226;2023-11-22T09:11:59;4.10;94.70
360;DHT22;168;48.872;9.226;2023-11-22T09:14:27;4.00;95.80
360;DHT22;168;48.872;9.226;2023-11-22T09:16:54;4.00;95.10
360;DHT22;168;48.872;9.226;2023-11-22T09:19:22;4.00;95.30
360;DHT22;168;48.872;9.226;2023-11-22T09:21:49;4.00;95.30
360;DHT22;168;48.872;9.226;2023-11-22T09:24:17;4.00;95.60
360;DHT22;168;48.872;9.226;2023-11-22T09:26:45;4.00;96.00
360;DHT22;168;48.872;9.226;2023-11-22T09:29:14;4.10;95.70
360;DHT22;168;48.872;9.226;2023-11-22T09:31:41;4.20;95.20
360;DHT22;168;48.872;9.226;2023-11-22T09:34:09;4.10;95.20
360;DHT22;168;48.872;9.226;2023-11-22T09:36:37;4.00;96.00
360;DHT22;168;48.872;9.226;2023-11-22T09:39:04;4.00;96.00
360;DHT22;168;48.872;9.226;2023-11-22T09:41:34;4.00;96.60
360;DHT22;168;48.872;9.226;2023-11-22T09:44:02;4.30;95.80
360;DHT22;168;48.872;9.226;2023-11-22T09:46:32;4.30;94.80
360;DHT22;168;48.872;9.226;2023-11-22T09:49:03;4.10;95.30
360;DHT22;168;48.872;9.226;2023-11-22T09:51:35;3.90;95.80
360;DHT22;168;48.872;9.226;2023-11-22T09:54:04;3.90;96.40
360;DHT22;168;48.872;9.226;2023-11-22T09:56:35;4.00;96.20
360;DHT22;168;48.872;9.226;2023-11-22T09:59:04;4.10;94.20
360;DHT22;168;48.872;9.226;2023-11-22T10:01:35;4.00;95.10
360;DHT22;168;48.872;9.226;2023-11-22T10:04:03;4.20;95.50
360;DHT22;168;48.872;9.226;2023-11-22T10:06:31;4.40;95.50
360;DHT22;168;48.872;9.226;2023-11-22T10:09:00;4.60;93.60
360;DHT22;168;48.872;9.226;2023-11-22T10:11:29;4.70;93.40
360;DHT22;168;48.872;9.226;2023-11-22T10:13:56;4.70;93.90
360;DHT22;168;48.872;9.226;2023-11-22T10:16:24;4.80;93.50
360;DHT22;168;48.872;9.226;2023-11-22T10:18:53;5.00;92.00
360;DHT22;168;48.872;9.226;2023-11-22T10:21:21;5.00;91.40
360;DHT22;168;48.872;9.226;2023-11-22T10:23:50;5.10;91.50
360;DHT22;168;48.872;9.226;2023-11-22T10:26:18;5.10;91.60
360;DHT22;168;48.872;9.226;2023-11-22T10:28:46;5.20;92.50
360;DHT22;168;48.872;9.226;2023-11-22T10:31:13;5.20;92.40
360;DHT22;168;48.872;9.226;2023-11-22T10:33:42;5.40;91.90
360;DHT22;168;48.872;9.226;2023-11-22T10:36:10;5.50;91.10
360;DHT22;168;48.872;9.226;2023-11-22T10:38:39;5.70;90.10
360;DHT22;168;48.872;9.226;2023-11-22T10:41:07;5.70;89.50
360;DHT22;168;48.872;9.226;2023-11-22T10:43:37;5.60;89.70
360;DHT22;168;48.872;9.226;2023-11-22T10:46:05;5.70;90.20
360;DHT22;168;48.872;9.226;2023-11-22T10:48:36;5.60;90.50
360;DHT22;168;48.872;9.226;2023-11-22T10:51:04;5.70;90.60
360;DHT22;168;48.872;9.226;2023-11-22T10:53:34;5.70;91.00
360;DHT22;168;48.872;9.226;2023-11-22T10:56:05;5.80;91.70
360;DHT22;168;48.872;9.226;2023-11-22T10:58:44;5.90;92.60
360;DHT22;168;48.872;9.226;2023-11-22T11:01:15;6.20;91.30
360;DHT22;168;48.872;9.226;2023-11-22T11:03:46;6.40;89.50
360;DHT22;168;48.872;9.226;2023-11-22T11:06:20;6.50;88.10
360;DHT22;168;48.872;9.226;2023-11-22T11:09:00;6.50;88.80
360;DHT22;168;48.872;9.226;2023-11-22T11:11:32;6.70;87.40
360;DHT22;168;48.872;9.226;2023-11-22T11:14:00;6.60;86.70
360;DHT22;168;48.872;9.226;2023-11-22T11:16:29;6.40;86.70
360;DHT22;168;48.872;9.226;2023-11-22T11:18:58;6.30;87.40
360;DHT22;168;48.872;9.226;2023-11-22T11:21:26;6.20;87.60
360;DHT22;168;48.872;9.226;2023-11-22T11:23:54;6.10;87.20
360;DHT22;168;48.872;9.226;2023-11-22T11:26:28;6.10;87.10
360;DHT22;168;48.872;9.226;2023-11-22T11:29:01;6.00;87.60
360;DHT22;168;48.872;9.226;2023-11-22T11:31:31;6.00;88.50
360;DHT22;168;48.872;9.226;2023-11-22T11:34:01;6.00;88.60
360;DHT22;168;48.872;9.226;2023-11-22T11:36:32;6.10;88.30
360;DHT22;168;48.872;9.226;2023-11-22T11:39:02;6.10;88.50
360;DHT22;168;48.872;9.226;2023-11-22T11:41:33;6.30;87.90
360;DHT22;168;48.872;9.226;2023-11-22T11:44:01;6.30;87.00
360;DHT22;168;48.872;9.226;2023-11-22T11:46:30;6.20;87.60
360;DHT22;168;48.872;9.226;2023-11-22T11:48:57;5.90;87.70
360;DHT22;168;48.872;9.226;2023-11-22T11:51:25;5.60;88.40
360;DHT22;168;48.872;9.226;2023-11-22T11:53:53;5.40;90.20
360;DHT22;168;48.872;9.226;2023-11-22T11:56:22;5.40;90.80
360;DHT22;168;48.872;9.226;2023-11-22T11:58:55;5.50;90.50
360;DHT22;168;48.872;9.226;2023-11-22T12:01:27;5.60;88.50
360;DHT22;168;48.872;9.226;2023-11-22T12:03:55;5.40;89.70
360;DHT22;168;48.872;9.226;2023-11-22T12:06:22;5.30;89.90
360;DHT22;168;48.872;9.226;2023-11-22T12:08:50;5.10;90.40
360;DHT22;168;48.872;9.226;2023-11-22T12:11:17;5.00;91.10
360;DHT22;168;48.872;9.226;2023-11-22T12:13:47;5.00;90.30
360;DHT22;168;48.872;9.226;2023-11-22T12:16:16;4.90;90.20
360;DHT22;168;48.872;9.226;2023-11-22T12:18:45;4.90;90.50
360;DHT22;168;48.872;9.226;2023-11-22T12:21:14;4.90;91.00
360;DHT22;168;48.872;9.226;2023-11-22T12:23:43;4.90;91.60
360;DHT22;168;48.872;9.226;2023-11-22T12:26:12;5.00;91.50
360;DHT22;168;48.872;9.226;2023-11-22T12:28:41;5.00;91.40
360;DHT22;168;48.872;9.226;2023-11-22T12:31:11;4.90;91.60
360;DHT22;168;48.872;9.226;2023-11-22T12:33:40;4.80;92.20
360;DHT22;168;48.872;9.226;2023-11-22T12:36:09;4.70;91.90
360;DHT22;168;48.872;9.226;2023-11-22T12:38:37;4.50;92.70
360;DHT22;168;48.872;9.226;2023-11-22T12:41:06;4.50;93.00
360;DHT22;168;48.872;9.226;2023-11-22T12:43:34;4.50;93.60
360;DHT22;168;48.872;9.226;2023-11-22T12:46:02;4.50;93.00
360;DHT22;168;48.872;9.226;2023-11-22T12:48:31;4.50;92.80
360;DHT22;168;48.872;9.226;2023-11-22T12:50:59;4.50;93.20
360;DHT22;168;48.872;9.226;2023-11-22T12:53:27;4.60;92.80
360;DHT22;168;48.872;9.226;2023-11-22T12:55:55;4.50;92.60
360;DHT22;168;48.872;9.226;2023-11-22T12:58:23;4.50;93.00
360;DHT22;168;48.872;9.226;2023-11-22T13:00:52;4.50;93.10
360;DHT22;168;48.872;9.226;2023-11-22T13:03:24;4.40;92.70
360;DHT22;168;48.872;9.226;2023-11-22T13:05:53;4.30;92.80
360;DHT22;168;48.872;9.226;2023-11-22T13:08:21;4.30;93.30
360;DHT22;168;48.872;9.226;2023-11-22T13:10:50;4.30;93.40
360;DHT22;168;48.872;9.226;2023-11-22T13:13:20;4.30;93.40
360;DHT22;168;48.872;9.226;2023-11-22T13:15:47;4.30;93.00
360;DHT22;168;48.872;9.226;2023-11-22T13:18:15;4.30;93.10
360;DHT22;168;48.872;9.226;2023-11-22T13:20:43;4.40;92.90
360;DHT22;168;48.872;9.226;2023-11-22T13:23:12;4.50;92.80
360;DHT22;168;48.872;9.226;2023-11-22T13:25:40;4.50;93.20
360;DHT22;168;48.872;9.226;2023-11-22T13:28:09;4.60;92.50
360;DHT22;168;48.872;9.226;2023-11-22T13:30:36;4.70;92.40
360;DHT22;168;48.872;9.226;2023-11-22T13:33:04;4.70;92.00
360;DHT22;168;48.872;9.226;2023-11-22T13:35:31;4.60;92.00
360;DHT22;168;48.872;9.226;2023-11-22T13:38:04;4.60;92.40
360;DHT22;168;48.872;9.226;2023-11-22T13:40:38;4.60;92.50
360;DHT22;168;48.872;9.226;2023-11-22T13:43:07;4.70;92.40
360;DHT22;168;48.872;9.226;2023-11-22T13:45:35;4.80;92.00
360;DHT22;168;48.872;9.226;2023-11-22T13:48:04;4.80;91.40
360;DHT22;168;48.872;9.226;2023-11-22T13:50:33;5.00;90.90
360;DHT22;168;48.872;9.226;2023-11-22T13:53:00;5.00;89.70
360;DHT22;168;48.872;9.226;2023-11-22T13:55:30;4.90;89.00
360;DHT22;168;48.872;9.226;2023-11-22T13:58:00;4.80;89.40
360;DHT22;168;48.872;9.226;2023-11-22T14:00:29;4.80;89.70
360;DHT22;168;48.872;9.226;2023-11-22T14:03:01;4.70;90.30
360;DHT22;168;48.872;9.226;2023-11-22T14:05:33;4.70;91.00
360;DHT22;168;48.872;9.226;2023-11-22T14:08:00;4.90;89.50
360;DHT22;168;48.872;9.226;2023-11-22T14:10:28;5.00;89.80
360;DHT22;168;48.872;9.226;2023-11-22T14:12:55;4.90;89.10
360;DHT22;168;48.872;9.226;2023-11-22T14:15:27;5.10;88.90
360;DHT22;168;48.872;9.226;2023-11-22T14:17:55;5.10;88.90
360;DHT22;168;48.872;9.226;2023-11-22T14:20:22;5.00;89.40
360;DHT22;168;48.872;9.226;2023-11-22T14:22:50;5.00;89.30
360;DHT22;168;48.872;9.226;2023-11-22T14:25:18;5.00;89.70
360;DHT22;168;48.872;9.226;2023-11-22T14:27:46;5.10;89.10
360;DHT22;168;48.872;9.226;2023-11-22T14:30:14;5.10;88.10
360;DHT22;168;48.872;9.226;2023-11-22T14:32:44;5.00;88.60
360;DHT22;168;48.872;9.226;2023-11-22T14:35:11;5.00;89.00
360;DHT22;168;48.872;9.226;2023-11-22T14:37:39;5.00;88.10
360;DHT22;168;48.872;9.226;2023-11-22T14:40:08;5.00;88.90
360;DHT22;168;48.872;9.226;2023-11-22T14:42:40;5.00;89.30
360;DHT22;168;48.872;9.226;2023-11-22T14:45:08;4.90;89.40
360;DHT22;168;48.872;9.226;2023-11-22T14:47:37;4.90;89.80
360;DHT22;168;48.872;9.226;2023-11-22T14:50:08;4.80;90.50
360;DHT22;168;48.872;9.226;2023-11-22T14:52:37;4.80;91.40
360;DHT22;168;48.872;9.226;2023-11-22T14:55:05;4.80;92.80
360;DHT22;168;48.872;9.226;2023-11-22T14:57:32;4.90;91.20
360;DHT22;168;48.872;9.226;2023-11-22T14:59:59;5.30;87.80
360;DHT22;168;48.872;9.226;2023-11-22T15:02:27;5.40;86.60
360;DHT22;168;48.872;9.226;2023-11-22T15:04:54;5.20;86.80
360;DHT22;168;48.872;9.226;2023-11-22T15:07:23;5.20;86.90
360;DHT22;168;48.872;9.226;2023-11-22T15:09:50;5.10;86.70
360;DHT22;168;48.872;9.226;2023-11-22T15:12:19;5.00;87.20
360;DHT22;168;48.872;9.226;2023-11-22T15:14:46;4.80;88.50
360;DHT22;168;48.872;9.226;2023-11-22T15:17:13;4.80;89.00
360;DHT22;168;48.872;9.226;2023-11-22T15:19:41;5.00;89.20
360;DHT22;168;48.872;9.226;2023-11-22T15:22:08;5.30;87.80
360;DHT22;168;48.872;9.226;2023-11-22T15:24:37;5.20;87.30
360;DHT22;168;48.872;9.226;2023-11-22T15:27:04;5.00;88.20
360;DHT22;168;48.872;9.226;2023-11-22T15:29:31;4.90;89.60
360;DHT22;168;48.872;9.226;2023-11-22T15:31:59;5.10;88.30
360;DHT22;168;48.872;9.226;2023-11-22T15:34:27;5.40;85.40
360;DHT22;168;48.872;9.226;2023-11-22T15:36:54;5.20;85.60
360;DHT22;168;48.872;9.226;2023-11-22T15:39:22;5.20;85.80
360;DHT22;168;48.872;9.226;2023-11-22T15:41:50;5.20;85.40
360;DHT22;168;48.872;9.226;2023-11-22T15:44:18;5.20;86.50
360;DHT22;168;48.872;9.226;2023-11-22T15:46:45;5.20;85.70
360;DHT22;168;48.872;9.226;2023-11-22T15:49:13;5.20;86.10
360;DHT22;168;48.872;9.226;2023-11-22T15:51:41;5.20;85.40
360;DHT22;168;48.872;9.226;2023-11-22T15:54:08;5.40;85.30
360;DHT22;168;48.872;9.226;2023-11-22T15:56:36;5.40;84.20
360;DHT22;168;48.872;9.226;2023-11-22T15:59:05;5.30;83.80
360;DHT22;168;48.872;9.226;2023-11-22T16:01:32;5.20;83.60
360;DHT22;168;48.872;9.226;2023-11-22T16:04:00;5.20;83.10
360;DHT22;168;48.872;9.226;2023-11-22T16:06:27;4.90;84.70
360;DHT22;168;48.872;9.226;2023-11-22T16:08:55;4.80;86.00
360;DHT22;168;48.872;9.226;2023-11-22T16:11:22;4.70;87.60
360;DHT22;168;48.872;9.226;2023-11-22T16:13:49;4.80;87.60
360;DHT22;168;48.872;9.226;2023-11-22T16:16:18;4.90;86.10
360;DHT22;168;48.872;9.226;2023-11-22T16:18:47;5.10;85.80
360;DHT22;168;48.872;9.226;2023-11-22T16:21:15;5.20;86.30
360;DHT22;168;48.872;9.226;2023-11-22T16:23:43;5.30;85.70
360;DHT22;168;48.872;9.226;2023-11-22T16:26:10;5.20;86.40
360;DHT22;168;48.872;9.226;2023-11-22T16:28:38;5.20;86.80
360;DHT22;168;48.872;9.226;2023-11-22T16:31:05;5.20;87.10
360;DHT22;168;48.872;9.226;2023-11-22T16:33:37;5.20;87.40
360;DHT22;168;48.872;9.226;2023-11-22T16:36:05;5.30;87.80
360;DHT22;168;48.872;9.226;2023-11-22T16:38:32;5.30;87.50
360;DHT22;168;48.872;9.226;2023-11-22T16:41:00;5.40;87.20
360;DHT22;168;48.872;9.226;2023-11-22T16:43:29;5.50;86.50
360;DHT22;168;48.872;9.226;2023-11-22T16:45:56;5.50;85.60
360;DHT22;168;48.872;9.226;2023-11-22T16:48:24;5.50;86.60
360;DHT22;168;48.872;9.226;2023-11-22T16:50:52;5.60;85.60
360;DHT22;168;48.872;9.226;2023-11-22T16:53:19;5.40;86.20
360;DHT22;168;48.872;9.226;2023-11-22T16:55:47;5.30;87.20
360;DHT22;168;48.872;9.226;2023-11-22T16:58:15;5.40;87.10